sensor_id;sensor_type;location;lat;lon;timestamp;temperature;humidity
15615;DHT22;7907;51.368;6.730;2023-01-05T00:00:11;12.70;99.90
15615;DHT22;7907;51.368;6.730;2023-01-05T00:02:38;12.70;99.90
15615;DHT22;7907;51.368;6.730;2023-01-05T00:05:10;12.70;99.90
15615;DHT22;7907;51.368;6.730;2023-01-05T00:07:37;12.70;99.90
15615;DHT22;7907;51.368;6.730;2023-01-05T00:10:04;12.70;99.90
15615;DHT22;7907;51.368;6.730;2023-01-05T00:12:52;12.70;99.90
15615;DHT22;7907;51.368;6.730;2023-01-05T00:15:37;12.70;99.90
15615;DHT22;7907;51.368;6.730;2023-01-05T00:18:23;12.70;99.90
15615;DHT22;7907;51.368;6.730;2023-01-05T00:21:12;12.70;99.90
15615;DHT22;7907;51.368;6.730;2023-01-05T00:23:57;12.70;99.90
15615;DHT22;7907;51.368;6.730;2023-01-05T00:26:24;12.60;99.90
15615;DHT22;7907;51.368;6.730;2023-01-05T00:28:51;12.60;99.90
15615;DHT22;7907;51.368;6.730;2023-01-05T00:31:18;12.60;99.90
15615;DHT22;7907;51.368;6.730;2023-01-05T00:33:45;12.60;99.90
15615;DHT22;7907;51.368;6.730;2023-01-05T00:36:14;12.60;99.90
15615;DHT22;7907;51.368;6.730;2023-01-05T00:38:41;12.60;99.90
15615;DHT22;7907;51.368;6.730;2023-01-05T00:41:08;12.60;99.90
15615;DHT22;7907;51.368;6.730;2023-01-05T00:43:35;12.60;99.90
15615;DHT22;7907;51.368;6.730;2023-01-05T00:46:03;12.60;99.90
15615;DHT22;7907;51.368;6.730;2023-01-05T00:48:30;12.60;99.90
15615;DHT22;7907;51.368;6.730;2023-01-05T00:50:57;12.60;99.90
15615;DHT22;7907;51.368;6.730;2023-01-05T00:53:25;12.50;99.90
15615;DHT22;7907;51.368;6.730;2023-01-05T00:55:55;12.60;99.90
15615;DHT22;7907;51.368;6.730;2023-01-05T00:58:22;12.50;99.90
15615;DHT22;7907;51.368;6.730;2023-01-05T01:00:49;12.50;99.90
15615;DHT22;7907;51.368;6.730;2023-01-05T01:03:17;12.50;99.90
15615;DHT22;7907;51.368;6.730;2023-01-05T01:05:44;12.40;99.90
15615;DHT22;7907;51.368;6.730;2023-01-05T01:08:22;12.40;99.90
15615;DHT22;7907;51.368;6.730;2023-01-05T01:10:50;12.40;99.90
15615;DHT22;7907;51.368;6.730;2023-01-05T01:13:17;12.40;99.90
15615;DHT22;7907;51.368;6.730;2023-01-05T01:15:44;12.40;99.90
15615;DHT22;7907;51.368;6.730;2023-01-05T01:18:11;12.40;99.90
15615;DHT22;7907;51.368;6.730;2023-01-05T01:20:39;12.40;99.90
15615;DHT22;7907;51.368;6.730;2023-01-05T01:23:06;12.30;99.90
15615;DHT22;7907;51.368;6.730;2023-01-05T01:25:33;12.30;99.90
15615;DHT22;7907;51.368;6.730;2023-01-05T01:28:02;12.30;99.90
15615;DHT22;7907;51.368;6.730;2023-01-05T01:30:29;12.30;99.90
15615;DHT22;7907;51.368;6.730;2023-01-05T01:32:56;12.30;99.90
15615;DHT22;7907;51.368;6.730;2023-01-05T01:35:23;12.30;99.90
15615;DHT22;7907;51.368;6.730;2023-01-05T01:37:50;12.30;99.90
15615;DHT22;7907;51.368;6.730;2023-01-05T01:40:17;12.30;99.90
15615;DHT22;7907;51.368;6.730;2023-01-05T01:42:44;12.20;99.90
15615;DHT22;7907;51.368;6.730;2023-01-05T01:45:17;12.20;99.90
15615;DHT22;7907;51.368;6.730;2023-01-05T01:47:48;12.20;99.90
15615;DHT22;7907;51.368;6.730;2023-01-05T01:50:19;12.20;99.90
15615;DHT22;7907;51.368;6.730;2023-01-05T01:52:49;12.20;99.90
15615;DHT22;7907;51.368;6.730;2023-01-05T01:55:19;12.10;99.90
15615;DHT22;7907;51.368;6.730;2023-01-05T01:57:47;12.10;99.90
15615;DHT22;7907;51.368;6.730;2023-01-05T02:00:16;12.10;99.90
15615;DHT22;7907;51.368;6.730;2023-01-05T02:02:45;12.10;99.90
15615;DHT22;7907;51.368;6.730;2023-01-05T02:05:14;12.00;99.90
15615;DHT22;7907;51.368;6.730;2023-01-05T02:07:44;12.10;99.90
15615;DHT22;7907;51.368;6.730;2023-01-05T02:10:13;12.10;99.90
15615;DHT22;7907;51.368;6.730;2023-01-05T02:12:52;12.00;99.90
15615;DHT22;7907;51.368;6.730;2023-01-05T02:15:34;12.00;99.90
15615;DHT22;7907;51.368;6.730;2023-01-05T02:18:12;12.10;99.90
15615;DHT22;7907;51.368;6.730;2023-01-05T02:21:00;12.10;99.90
15615;DHT22;7907;51.368;6.730;2023-01-05T02:24:11;12.00;99.90
15615;DHT22;7907;51.368;6.730;2023-01-05T02:27:16;12.10;99.90
15615;DHT22;7907;51.368;6.730;2023-01-05T02:30:12;12.10;99.90
15615;DHT22;7907;51.368;6.730;2023-01-05T02:32:46;12.10;99.90
15615;DHT22;7907;51.368;6.730;2023-01-05T02:35:23;12.20;99.90
15615;DHT22;7907;51.368;6.730;2023-01-05T02:38:00;12.10;99.90
15615;DHT22;7907;51.368;6.730;2023-01-05T02:40:35;12.10;99.90
15615;DHT22;7907;51.368;6.730;2023-01-05T02:43:03;12.10;99.90
15615;DHT22;7907;51.368;6.730;2023-01-05T02:45:32;12.10;99.90
15615;DHT22;7907;51.368;6.730;2023-01-05T02:48:00;12.10;99.90
15615;DHT22;7907;51.368;6.730;2023-01-05T02:50:39;12.10;99.90
15615;DHT22;7907;51.368;6.730;2023-01-05T02:53:13;12.10;99.90
15615;DHT22;7907;51.368;6.730;2023-01-05T02:55:45;12.10;99.90
15615;DHT22;7907;51.368;6.730;2023-01-05T02:58:16;12.10;99.90
15615;DHT22;7907;51.368;6.730;2023-01-05T03:00:48;12.10;99.90
15615;DHT22;7907;51.368;6.730;2023-01-05T03:03:20;12.10;99.90
15615;DHT22;7907;51.368;6.730;2023-01-05T03:05:52;12.10;99.90
15615;DHT22;7907;51.368;6.730;2023-01-05T03:08:22;12.10;99.90
15615;DHT22;7907;51.368;6.730;2023-01-05T03:10:58;12.00;99.90
15615;DHT22;7907;51.368;6.730;2023-01-05T03:13:46;12.00;99.90
15615;DHT22;7907;51.368;6.730;2023-01-05T03:16:19;12.00;99.90
15615;DHT22;7907;51.368;6.730;2023-01-05T03:18:52;12.00;99.90
15615;DHT22;7907;51.368;6.730;2023-01-05T03:21:38;12.00;99.90
15615;DHT22;7907;51.368;6.730;2023-01-05T03:24:23;12.00;99.90
15615;DHT22;7907;51.368;6.730;2023-01-05T03:27:07;11.90;99.90
15615;DHT22;7907;51.368;6.730;2023-01-05T03:29:55;11.90;99.90
15615;DHT22;7907;51.368;6.730;2023-01-05T03:32:45;12.00;99.90
15615;DHT22;7907;51.368;6.730;2023-01-05T03:35:57;12.00;99.90
15615;DHT22;7907;51.368;6.730;2023-01-05T03:38:42;12.00;99.90
15615;DHT22;7907;51.368;6.730;2023-01-05T03:41:12;12.00;99.90
15615;DHT22;7907;51.368;6.730;2023-01-05T03:43:45;12.00;99.90
15615;DHT22;7907;51.368;6.730;2023-01-05T03:46:27;11.90;99.90
15615;DHT22;7907;51.368;6.730;2023-01-05T03:48:59;11.80;99.90
15615;DHT22;7907;51.368;6.730;2023-01-05T03:51:27;11.80;99.90
15615;DHT22;7907;51.368;6.730;2023-01-05T03:53:55;11.80;99.90
15615;DHT22;7907;51.368;6.730;2023-01-05T03:56:22;11.80;99.90
15615;DHT22;7907;51.368;6.730;2023-01-05T03:58:49;11.70;99.90
15615;DHT22;7907;51.368;6.730;2023-01-05T04:01:17;11.70;99.90
15615;DHT22;7907;51.368;6.730;2023-01-05T04:03:44;11.70;99.90
15615;DHT22;7907;51.368;6.730;2023-01-05T04:06:12;11.70;99.90
15615;DHT22;7907;51.368;6.730;2023-01-05T04:08:41;11.70;99.90
15615;DHT22;7907;51.368;6.730;2023-01-05T04:11:16;11.70;99.90
15615;DHT22;7907;51.368;6.730;2023-01-05T04:13:46;11.70;99.90
15615;DHT22;7907;51.368;6.730;2023-01-05T04:16:16;11.70;99.90
15615;DHT22;7907;51.368;6.730;2023-01-05T04:18:48;11.70;99.90
15615;DHT22;7907;51.368;6.730;2023-01-05T04:21:31;11.70;99.90
15615;DHT22;7907;51.368;6.730;2023-01-05T04:24:00;11.70;99.90
15615;DHT22;7907;51.368;6.730;2023-01-05T04:26:36;11.60;99.90
15615;DHT22;7907;51.368;6.730;2023-01-05T04:29:04;11.60;99.90
15615;DHT22;7907;51.368;6.730;2023-01-05T04:31:31;11.50;99.90
15615;DHT22;7907;51.368;6.730;2023-01-05T04:33:58;11.50;99.90
15615;DHT22;7907;51.368;6.730;2023-01-05T04:36:26;11.50;99.90
15615;DHT22;7907;51.368;6.730;2023-01-05T04:38:53;11.50;99.90
15615;DHT22;7907;51.368;6.730;2023-01-05T04:41:22;11.40;99.90
15615;DHT22;7907;51.368;6.730;2023-01-05T04:43:51;11.40;99.90
15615;DHT22;7907;51.368;6.730;2023-01-05T04:46:18;11.40;99.90
15615;DHT22;7907;51.368;6.730;2023-01-05T04:48:45;11.30;99.90
15615;DHT22;7907;51.368;6.730;2023-01-05T04:51:13;11.30;99.90
15615;DHT22;7907;51.368;6.730;2023-01-05T04:53:51;11.30;99.90
15615;DHT22;7907;51.368;6.730;2023-01-05T04:56:32;11.30;99.90
15615;DHT22;7907;51.368;6.730;2023-01-05T04:59:04;11.30;99.90
15615;DHT22;7907;51.368;6.730;2023-01-05T05:01:31;11.30;99.90
15615;DHT22;7907;51.368;6.730;2023-01-05T05:04:10;11.30;99.90
15615;DHT22;7907;51.368;6.730;2023-01-05T05:06:51;11.30;99.90
15615;DHT22;7907;51.368;6.730;2023-01-05T05:09:19;11.30;99.90
15615;DHT22;7907;51.368;6.730;2023-01-05T05:11:50;11.30;99.90
15615;DHT22;7907;51.368;6.730;2023-01-05T05:14:27;11.30;99.90
15615;DHT22;7907;51.368;6.730;2023-01-05T05:16:54;11.30;99.90
15615;DHT22;7907;51.368;6.730;2023-01-05T05:19:35;11.30;99.90
15615;DHT22;7907;51.368;6.730;2023-01-05T05:22:03;11.40;99.90
15615;DHT22;7907;51.368;6.730;2023-01-05T05:24:30;11.40;99.90
15615;DHT22;7907;51.368;6.730;2023-01-05T05:26:58;11.30;99.90
15615;DHT22;7907;51.368;6.730;2023-01-05T05:29:32;11.40;99.90
15615;DHT22;7907;51.368;6.730;2023-01-05T05:32:10;11.30;99.90
15615;DHT22;7907;51.368;6.730;2023-01-05T05:34:38;11.40;99.90
15615;DHT22;7907;51.368;6.730;2023-01-05T05:37:06;11.30;99.90
15615;DHT22;7907;51.368;6.730;2023-01-05T05:39:35;11.40;99.90
15615;DHT22;7907;51.368;6.730;2023-01-05T05:42:05;11.30;99.90
15615;DHT22;7907;51.368;6.730;2023-01-05T05:44:32;11.30;99.90
15615;DHT22;7907;51.368;6.730;2023-01-05T05:47:06;11.30;99.90
15615;DHT22;7907;51.368;6.730;2023-01-05T05:49:34;11.30;99.90
15615;DHT22;7907;51.368;6.730;2023-01-05T05:52:27;11.40;99.90
15615;DHT22;7907;51.368;6.730;2023-01-05T05:54:54;11.30;99.90
15615;DHT22;7907;51.368;6.730;2023-01-05T05:57:27;11.20;99.90
15615;DHT22;7907;51.368;6.730;2023-01-05T06:00:13;11.30;99.90
15615;DHT22;7907;51.368;6.730;2023-01-05T06:03:10;11.20;99.90
15615;DHT22;7907;51.368;6.730;2023-01-05T06:05:38;11.20;99.90
15615;DHT22;7907;51.368;6.730;2023-01-05T06:08:05;11.20;99.90
15615;DHT22;7907;51.368;6.730;2023-01-05T06:10:43;11.20;99.90
15615;DHT22;7907;51.368;6.730;2023-01-05T06:13:14;11.10;99.90
15615;DHT22;7907;51.368;6.730;2023-01-05T06:15:43;11.10;99.90
15615;DHT22;7907;51.368;6.730;2023-01-05T06:18:24;11.00;99.90
15615;DHT22;7907;51.368;6.730;2023-01-05T06:20:56;11.00;99.90
15615;DHT22;7907;51.368;6.730;2023-01-05T06:24:02;10.90;99.90
15615;DHT22;7907;51.368;6.730;2023-01-05T06:30:16;10.80;99.90
15615;DHT22;7907;51.368;6.730;2023-01-05T06:32:55;10.70;99.90
15615;DHT22;7907;51.368;6.730;2023-01-05T06:35:42;10.70;99.90
15615;DHT22;7907;51.368;6.730;2023-01-05T06:38:20;10.70;99.90
15615;DHT22;7907;51.368;6.730;2023-01-05T06:41:06;10.60;99.90
15615;DHT22;7907;51.368;6.730;2023-01-05T06:43:36;10.70;99.90
15615;DHT22;7907;51.368;6.730;2023-01-05T06:46:10;10.70;99.90
15615;DHT22;7907;51.368;6.730;2023-01-05T06:48:52;10.70;99.90
15615;DHT22;7907;51.368;6.730;2023-01-05T06:51:26;10.70;99.90
15615;DHT22;7907;51.368;6.730;2023-01-05T06:53:54;10.70;99.90
15615;DHT22;7907;51.368;6.730;2023-01-05T06:56:25;10.70;99.90
15615;DHT22;7907;51.368;6.730;2023-01-05T06:58:55;10.60;99.90
15615;DHT22;7907;51.368;6.730;2023-01-05T07:01:26;10.70;99.90
15615;DHT22;7907;51.368;6.730;2023-01-05T07:03:58;10.70;99.90
15615;DHT22;7907;51.368;6.730;2023-01-05T07:06:25;10.70;99.90
15615;DHT22;7907;51.368;6.730;2023-01-05T07:08:56;10.70;99.90
15615;DHT22;7907;51.368;6.730;2023-01-05T07:11:23;10.70;99.90
15615;DHT22;7907;51.368;6.730;2023-01-05T07:14:24;10.70;99.90
15615;DHT22;7907;51.368;6.730;2023-01-05T07:16:56;10.70;99.90
15615;DHT22;7907;51.368;6.730;2023-01-05T07:19:26;10.70;99.90
15615;DHT22;7907;51.368;6.730;2023-01-05T07:21:55;10.70;99.90
15615;DHT22;7907;51.368;6.730;2023-01-05T07:24:45;10.70;99.90
15615;DHT22;7907;51.368;6.730;2023-01-05T07:27:17;10.70;99.90
15615;DHT22;7907;51.368;6.730;2023-01-05T07:29:52;10.70;99.90
15615;DHT22;7907;51.368;6.730;2023-01-05T07:32:53;10.80;99.90
15615;DHT22;7907;51.368;6.730;2023-01-05T07:35:23;10.80;99.90
15615;DHT22;7907;51.368;6.730;2023-01-05T07:37:55;10.80;99.90
15615;DHT22;7907;51.368;6.730;2023-01-05T07:40:33;10.80;99.90
15615;DHT22;7907;51.368;6.730;2023-01-05T07:43:23;10.80;99.90
15615;DHT22;7907;51.368;6.730;2023-01-05T07:46:05;10.80;99.90
15615;DHT22;7907;51.368;6.730;2023-01-05T07:48:34;10.80;99.90
15615;DHT22;7907;51.368;6.730;2023-01-05T07:51:04;10.80;99.90
15615;DHT22;7907;51.368;6.730;2023-01-05T07:57:01;10.80;99.90
15615;DHT22;7907;51.368;6.730;2023-01-05T07:59:46;10.80;99.90
15615;DHT22;7907;51.368;6.730;2023-01-05T08:02:18;10.80;99.90
15615;DHT22;7907;51.368;6.730;2023-01-05T08:04:53;10.90;99.90
15615;DHT22;7907;51.368;6.730;2023-01-05T08:08:04;10.90;99.90
15615;DHT22;7907;51.368;6.730;2023-01-05T08:10:41;10.90;99.90
15615;DHT22;7907;51.368;6.730;2023-01-05T08:13:45;10.90;99.90
15615;DHT22;7907;51.368;6.730;2023-01-05T08:16:51;11.00;99.90
15615;DHT22;7907;51.368;6.730;2023-01-05T08:19:19;11.00;99.90
15615;DHT22;7907;51.368;6.730;2023-01-05T08:21:56;11.00;99.90
15615;DHT22;7907;51.368;6.730;2023-01-05T08:24:23;11.00;99.90
15615;DHT22;7907;51.368;6.730;2023-01-05T08:26:50;11.00;99.90
15615;DHT22;7907;51.368;6.730;2023-01-05T08:29:35;11.00;99.90
15615;DHT22;7907;51.368;6.730;2023-01-05T08:32:10;11.00;99.90
15615;DHT22;7907;51.368;6.730;2023-01-05T08:34:38;11.10;99.90
15615;DHT22;7907;51.368;6.730;2023-01-05T08:37:07;11.00;99.90
15615;DHT22;7907;51.368;6.730;2023-01-05T08:39:47;11.10;99.90
15615;DHT22;7907;51.368;6.730;2023-01-05T08:42:35;11.10;99.90
15615;DHT22;7907;51.368;6.730;2023-01-05T08:48:38;11.10;99.90
15615;DHT22;7907;51.368;6.730;2023-01-05T08:51:33;11.10;99.90
15615;DHT22;7907;51.368;6.730;2023-01-05T08:54:04;11.20;99.90
15615;DHT22;7907;51.368;6.730;2023-01-05T08:56:39;11.20;99.90
15615;DHT22;7907;51.368;6.730;2023-01-05T08:59:11;11.20;99.90
15615;DHT22;7907;51.368;6.730;2023-01-05T09:01:44;11.20;99.90
15615;DHT22;7907;51.368;6.730;2023-01-05T09:04:11;11.20;99.90
15615;DHT22;7907;51.368;6.730;2023-01-05T09:06:43;11.20;99.90
15615;DHT22;7907;51.368;6.730;2023-01-05T09:09:25;11.20;99.90
15615;DHT22;7907;51.368;6.730;2023-01-05T09:12:02;11.20;99.90
15615;DHT22;7907;51.368;6.730;2023-01-05T09:14:56;11.20;99.90
15615;DHT22;7907;51.368;6.730;2023-01-05T09:17:37;11.30;99.90
15615;DHT22;7907;51.368;6.730;2023-01-05T09:20:25;11.30;99.90
15615;DHT22;7907;51.368;6.730;2023-01-05T09:23:10;11.40;99.90
15615;DHT22;7907;51.368;6.730;2023-01-05T09:25:54;11.30;99.90
15615;DHT22;7907;51.368;6.730;2023-01-05T09:28:22;11.40;99.90
15615;DHT22;7907;51.368;6.730;2023-01-05T09:31:13;11.30;99.90
15615;DHT22;7907;51.368;6.730;2023-01-05T09:35:56;11.40;99.90
15615;DHT22;7907;51.368;6.730;2023-01-05T09:36:56;11.40;99.90
15615;DHT22;7907;51.368;6.730;2023-01-05T09:39:49;11.50;99.90
15615;DHT22;7907;51.368;6.730;2023-01-05T09:42:20;11.50;99.90
15615;DHT22;7907;51.368;6.730;2023-01-05T09:44:53;11.50;99.90
15615;DHT22;7907;51.368;6.730;2023-01-05T09:47:29;11.60;99.90
15615;DHT22;7907;51.368;6.730;2023-01-05T09:50:04;11.60;99.90
15615;DHT22;7907;51.368;6.730;2023-01-05T09:52:41;11.60;99.90
15615;DHT22;7907;51.368;6.730;2023-01-05T09:55:15;11.60;99.90
15615;DHT22;7907;51.368;6.730;2023-01-05T09:58:04;11.70;99.90
15615;DHT22;7907;51.368;6.730;2023-01-05T10:00:43;11.70;99.90
15615;DHT22;7907;51.368;6.730;2023-01-05T10:03:23;11.70;99.90
15615;DHT22;7907;51.368;6.730;2023-01-05T10:05:52;11.60;99.90
15615;DHT22;7907;51.368;6.730;2023-01-05T10:08:26;11.70;99.90
15615;DHT22;7907;51.368;6.730;2023-01-05T10:11:04;11.80;99.90
15615;DHT22;7907;51.368;6.730;2023-01-05T10:17:19;11.80;99.90
15615;DHT22;7907;51.368;6.730;2023-01-05T10:19:54;11.90;99.90
15615;DHT22;7907;51.368;6.730;2023-01-05T10:22:51;11.90;99.90
15615;DHT22;7907;51.368;6.730;2023-01-05T10:25:28;11.90;99.90
15615;DHT22;7907;51.368;6.730;2023-01-05T10:28:22;12.00;99.90
15615;DHT22;7907;51.368;6.730;2023-01-05T10:31:02;12.00;99.90
15615;DHT22;7907;51.368;6.730;2023-01-05T10:33:51;12.00;99.90
15615;DHT22;7907;51.368;6.730;2023-01-05T10:36:54;12.00;99.90
15615;DHT22;7907;51.368;6.730;2023-01-05T10:39:57;12.00;99.90
15615;DHT22;7907;51.368;6.730;2023-01-05T10:42:48;12.00;99.90
15615;DHT22;7907;51.368;6.730;2023-01-05T10:48:35;12.10;99.90
15615;DHT22;7907;51.368;6.730;2023-01-05T10:54:37;12.20;99.90
15615;DHT22;7907;51.368;6.730;2023-01-05T10:57:44;12.20;99.90
15615;DHT22;7907;51.368;6.730;2023-01-05T11:00:23;12.20;99.90
15615;DHT22;7907;51.368;6.730;2023-01-05T11:03:27;12.30;99.90
15615;DHT22;7907;51.368;6.730;2023-01-05T11:06:22;12.30;99.90
15615;DHT22;7907;51.368;6.730;2023-01-05T11:09:14;12.30;99.90
15615;DHT22;7907;51.368;6.730;2023-01-05T11:12:13;12.30;99.90
15615;DHT22;7907;51.368;6.730;2023-01-05T11:14:55;12.30;99.90
15615;DHT22;7907;51.368;6.730;2023-01-05T11:17:34;12.30;99.90
15615;DHT22;7907;51.368;6.730;2023-01-05T11:20:17;12.40;99.90
15615;DHT22;7907;51.368;6.730;2023-01-05T11:22:54;12.40;99.90
15615;DHT22;7907;51.368;6.730;2023-01-05T11:25:47;12.40;99.90
15615;DHT22;7907;51.368;6.730;2023-01-05T11:28:56;12.40;99.90
15615;DHT22;7907;51.368;6.730;2023-01-05T11:31:42;12.40;99.90
15615;DHT22;7907;51.368;6.730;2023-01-05T11:34:30;12.40;99.90
15615;DHT22;7907;51.368;6.730;2023-01-05T11:40:12;12.40;99.90
15615;DHT22;7907;51.368;6.730;2023-01-05T11:43:26;12.30;99.90
15615;DHT22;7907;51.368;6.730;2023-01-05T11:46:11;12.40;99.90
15615;DHT22;7907;51.368;6.730;2023-01-05T11:48:59;12.50;99.90
15615;DHT22;7907;51.368;6.730;2023-01-05T11:51:47;12.50;99.90
15615;DHT22;7907;51.368;6.730;2023-01-05T11:57:52;12.50;99.90
15615;DHT22;7907;51.368;6.730;2023-01-05T12:00:42;12.50;99.90
15615;DHT22;7907;51.368;6.730;2023-01-05T12:03:40;12.60;99.90
15615;DHT22;7907;51.368;6.730;2023-01-05T12:06:32;12.60;99.90
15615;DHT22;7907;51.368;6.730;2023-01-05T12:09:07;12.50;99.90
15615;DHT22;7907;51.368;6.730;2023-01-05T12:11:52;12.50;99.90
15615;DHT22;7907;51.368;6.730;2023-01-05T12:14:37;12.50;99.90
15615;DHT22;7907;51.368;6.730;2023-01-05T12:17:23;12.50;99.90
15615;DHT22;7907;51.368;6.730;2023-01-05T12:20:24;12.50;99.90
15615;DHT22;7907;51.368;6.730;2023-01-05T12:23:29;12.50;99.90
15615;DHT22;7907;51.368;6.730;2023-01-05T12:26:13;12.50;99.90
15615;DHT22;7907;51.368;6.730;2023-01-05T12:29:05;12.50;99.90
15615;DHT22;7907;51.368;6.730;2023-01-05T12:31:50;12.50;99.90
15615;DHT22;7907;51.368;6.730;2023-01-05T12:48:59;12.70;99.90
15615;DHT22;7907;51.368;6.730;2023-01-05T12:51:46;12.80;99.90
15615;DHT22;7907;51.368;6.730;2023-01-05T12:54:36;12.90;99.90
15615;DHT22;7907;51.368;6.730;2023-01-05T12:57:27;12.90;99.90
15615;DHT22;7907;51.368;6.730;2023-01-05T13:00:00;12.90;99.90
15615;DHT22;7907;51.368;6.730;2023-01-05T13:02:35;12.90;99.90
15615;DHT22;7907;51.368;6.730;2023-01-05T13:05:20;12.80;99.90
15615;DHT22;7907;51.368;6.730;2023-01-05T13:08:03;12.80;99.90
15615;DHT22;7907;51.368;6.730;2023-01-05T13:10:50;12.70;99.90
15615;DHT22;7907;51.368;6.730;2023-01-05T13:13:29;12.70;99.90
15615;DHT22;7907;51.368;6.730;2023-01-05T13:16:20;12.70;99.90
15615;DHT22;7907;51.368;6.730;2023-01-05T13:18:54;12.60;99.90
15615;DHT22;7907;51.368;6.730;2023-01-05T13:21:30;12.60;99.90
15615;DHT22;7907;51.368;6.730;2023-01-05T13:24:05;12.60;99.90
15615;DHT22;7907;51.368;6.730;2023-01-05T13:26:37;12.60;99.90
15615;DHT22;7907;51.368;6.730;2023-01-05T13:29:58;12.70;99.90
15615;DHT22;7907;51.368;6.730;2023-01-05T13:32:31;12.70;99.90
15615;DHT22;7907;51.368;6.730;2023-01-05T13:35:33;12.70;99.90
15615;DHT22;7907;51.368;6.730;2023-01-05T13:41:26;13.20;99.90
15615;DHT22;7907;51.368;6.730;2023-01-05T13:44:29;13.30;99.90
15615;DHT22;7907;51.368;6.730;2023-01-05T13:47:23;13.40;99.90
15615;DHT22;7907;51.368;6.730;2023-01-05T13:50:33;13.50;99.90
15615;DHT22;7907;51.368;6.730;2023-01-05T13:53:10;13.60;99.90
15615;DHT22;7907;51.368;6.730;2023-01-05T13:55:47;13.60;99.90
15615;DHT22;7907;51.368;6.730;2023-01-05T13:58:44;13.50;99.90
15615;DHT22;7907;51.368;6.730;2023-01-05T14:01:36;13.40;99.90
15615;DHT22;7907;51.368;6.730;2023-01-05T14:04:16;13.30;99.90
15615;DHT22;7907;51.368;6.730;2023-01-05T14:06:52;13.20;99.90
15615;DHT22;7907;51.368;6.730;2023-01-05T14:09:31;13.20;99.90
15615;DHT22;7907;51.368;6.730;2023-01-05T14:12:44;13.20;99.90
15615;DHT22;7907;51.368;6.730;2023-01-05T14:15:42;13.20;99.90
15615;DHT22;7907;51.368;6.730;2023-01-05T14:18:12;13.10;99.90
15615;DHT22;7907;51.368;6.730;2023-01-05T14:24:32;13.10;99.90
15615;DHT22;7907;51.368;6.730;2023-01-05T14:27:09;13.00;99.90
15615;DHT22;7907;51.368;6.730;2023-01-05T14:29:59;13.00;99.90
15615;DHT22;7907;51.368;6.730;2023-01-05T14:32:41;12.90;99.90
15615;DHT22;7907;51.368;6.730;2023-01-05T14:35:19;13.00;99.90
15615;DHT22;7907;51.368;6.730;2023-01-05T14:38:15;12.90;99.90
15615;DHT22;7907;51.368;6.730;2023-01-05T14:41:12;12.90;99.90
15615;DHT22;7907;51.368;6.730;2023-01-05T14:43:54;12.90;99.90
15615;DHT22;7907;51.368;6.730;2023-01-05T14:46:27;12.90;99.90
15615;DHT22;7907;51.368;6.730;2023-01-05T14:49:08;12.90;99.90
15615;DHT22;7907;51.368;6.730;2023-01-05T14:51:58;12.90;99.90
15615;DHT22;7907;51.368;6.730;2023-01-05T14:56:28;12.90;99.90
15615;DHT22;7907;51.368;6.730;2023-01-05T15:02:43;12.90;99.90
15615;DHT22;7907;51.368;6.730;2023-01-05T15:06:23;12.80;99.90
15615;DHT22;7907;51.368;6.730;2023-01-05T15:09:15;12.70;99.90
15615;DHT22;7907;51.368;6.730;2023-01-05T15:12:21;12.70;99.90
15615;DHT22;7907;51.368;6.730;2023-01-05T15:18:26;12.60;99.90
15615;DHT22;7907;51.368;6.730;2023-01-05T15:21:34;12.50;99.90
15615;DHT22;7907;51.368;6.730;2023-01-05T15:28:06;12.50;99.90
15615;DHT22;7907;51.368;6.730;2023-01-05T15:34:20;12.40;99.90
15615;DHT22;7907;51.368;6.730;2023-01-05T15:37:09;12.40;99.90
15615;DHT22;7907;51.368;6.730;2023-01-05T15:39:54;12.30;99.90
15615;DHT22;7907;51.368;6.730;2023-01-05T15:43:10;12.30;99.90
15615;DHT22;7907;51.368;6.730;2023-01-05T15:46:03;12.20;99.90
15615;DHT22;7907;51.368;6.730;2023-01-05T15:49:04;12.20;99.90
15615;DHT22;7907;51.368;6.730;2023-01-05T15:55:10;12.10;99.90
15615;DHT22;7907;51.368;6.730;2023-01-05T15:57:56;12.00;99.90
15615;DHT22;7907;51.368;6.730;2023-01-05T16:04:03;12.00;99.90
15615;DHT22;7907;51.368;6.730;2023-01-05T16:06:56;12.00;99.90
15615;DHT22;7907;51.368;6.730;2023-01-05T16:09:55;12.00;99.90
15615;DHT22;7907;51.368;6.730;2023-01-05T16:13:04;12.00;99.90
15615;DHT22;7907;51.368;6.730;2023-01-05T16:15:35;12.00;99.90
15615;DHT22;7907;51.368;6.730;2023-01-05T16:18:30;12.00;99.90
15615;DHT22;7907;51.368;6.730;2023-01-05T16:21:21;12.00;99.90
15615;DHT22;7907;51.368;6.730;2023-01-05T16:24:47;12.00;99.90
15615;DHT22;7907;51.368;6.730;2023-01-05T16:27:15;12.00;99.90
15615;DHT22;7907;51.368;6.730;2023-01-05T16:30:11;12.00;99.90
15615;DHT22;7907;51.368;6.730;2023-01-05T16:34:03;12.00;99.90
15615;DHT22;7907;51.368;6.730;2023-01-05T16:36:16;12.00;99.90
15615;DHT22;7907;51.368;6.730;2023-01-05T16:38:48;12.00;99.90
15615;DHT22;7907;51.368;6.730;2023-01-05T16:41:26;12.00;99.90
15615;DHT22;7907;51.368;6.730;2023-01-05T16:44:27;12.00;99.90
15615;DHT22;7907;51.368;6.730;2023-01-05T17:00:38;11.90;99.90
15615;DHT22;7907;51.368;6.730;2023-01-05T17:03:33;11.80;99.90
15615;DHT22;7907;51.368;6.730;2023-01-05T17:06:18;11.80;99.90
15615;DHT22;7907;51.368;6.730;2023-01-05T17:08:54;11.80;99.90
15615;DHT22;7907;51.368;6.730;2023-01-05T17:11:44;11.80;99.90
15615;DHT22;7907;51.368;6.730;2023-01-05T17:15:48;11.80;99.90
15615;DHT22;7907;51.368;6.730;2023-01-05T17:18:19;11.80;99.90
15615;DHT22;7907;51.368;6.730;2023-01-05T17:25:40;11.80;99.90
15615;DHT22;7907;51.368;6.730;2023-01-05T17:31:41;11.70;99.90
15615;DHT22;7907;51.368;6.730;2023-01-05T17:38:45;11.70;99.90
15615;DHT22;7907;51.368;6.730;2023-01-05T17:42:12;11.70;99.90
15615;DHT22;7907;51.368;6.730;2023-01-05T17:45:53;11.70;99.90
15615;DHT22;7907;51.368;6.730;2023-01-05T17:48:28;11.70;99.90
15615;DHT22;7907;51.368;6.730;2023-01-05T17:51:26;11.60;99.90
15615;DHT22;7907;51.368;6.730;2023-01-05T17:54:34;11.70;99.90
15615;DHT22;7907;51.368;6.730;2023-01-05T17:57:54;11.60;99.90
15615;DHT22;7907;51.368;6.730;2023-01-05T18:00:27;11.60;99.90
15615;DHT22;7907;51.368;6.730;2023-01-05T18:06:31;11.50;99.90
15615;DHT22;7907;51.368;6.730;2023-01-05T18:09:32;11.50;99.90
15615;DHT22;7907;51.368;6.730;2023-01-05T18:12:47;11.50;99.90
15615;DHT22;7907;51.368;6.730;2023-01-05T18:15:26;11.50;99.90
15615;DHT22;7907;51.368;6.730;2023-01-05T18:18:10;11.50;99.90
15615;DHT22;7907;51.368;6.730;2023-01-05T18:27:26;11.50;99.90
15615;DHT22;7907;51.368;6.730;2023-01-05T18:30:51;11.50;99.90
15615;DHT22;7907;51.368;6.730;2023-01-05T18:33:57;11.50;99.90
15615;DHT22;7907;51.368;6.730;2023-01-05T18:36:34;11.50;99.90
15615;DHT22;7907;51.368;6.730;2023-01-05T18:40:02;11.50;99.90
15615;DHT22;7907;51.368;6.730;2023-01-05T18:42:59;11.50;99.90
15615;DHT22;7907;51.368;6.730;2023-01-05T18:46:07;11.50;99.90
15615;DHT22;7907;51.368;6.730;2023-01-05T18:49:11;11.40;99.90
15615;DHT22;7907;51.368;6.730;2023-01-05T18:55:26;11.50;99.90
15615;DHT22;7907;51.368;6.730;2023-01-05T18:58:28;11.50;99.90
15615;DHT22;7907;51.368;6.730;2023-01-05T19:04:58;11.50;99.90
15615;DHT22;7907;51.368;6.730;2023-01-05T19:14:19;11.50;99.90